sensor_id;sensor_type;location;lat;lon;timestamp;P1;durP1;ratioP1;P2;durP2;ratioP2
61096;SDS011;46977;50.936;6.908;2023-01-08T00:02:49;2.85;;;1.85;;
61096;SDS011;46977;50.936;6.908;2023-01-08T00:05:53;4.75;;;1.90;;
61096;SDS011;46977;50.936;6.908;2023-01-08T00:08:55;3.72;;;1.63;;
61096;SDS011;46977;50.936;6.908;2023-01-08T00:11:58;3.40;;;1.35;;
61096;SDS011;46977;50.936;6.908;2023-01-08T00:15:00;2.03;;;1.48;;
61096;SDS011;46977;50.936;6.908;2023-01-08T00:18:04;2.83;;;1.40;;
61096;SDS011;46977;50.936;6.908;2023-01-08T00:21:09;3.22;;;1.55;;
61096;SDS011;46977;50.936;6.908;2023-01-08T00:24:11;6.03;;;1.70;;
61096;SDS011;46977;50.936;6.908;2023-01-08T00:27:13;5.35;;;2.00;;
61096;SDS011;46977;50.936;6.908;2023-01-08T00:30:16;5.13;;;2.30;;
61096;SDS011;46977;50.936;6.908;2023-01-08T00:33:18;3.53;;;1.55;;
61096;SDS011;46977;50.936;6.908;2023-01-08T00:36:22;11.10;;;2.45;;
61096;SDS011;46977;50.936;6.908;2023-01-08T00:39:24;2.47;;;1.15;;
61096;SDS011;46977;50.936;6.908;2023-01-08T00:42:27;6.38;;;1.67;;
61096;SDS011;46977;50.936;6.908;2023-01-08T00:45:29;5.05;;;1.83;;
61096;SDS011;46977;50.936;6.908;2023-01-08T00:48:32;2.90;;;1.33;;
61096;SDS011;46977;50.936;6.908;2023-01-08T00:51:39;2.53;;;1.40;;
61096;SDS011;46977;50.936;6.908;2023-01-08T00:54:41;8.35;;;1.70;;
61096;SDS011;46977;50.936;6.908;2023-01-08T00:57:44;2.92;;;1.40;;
61096;SDS011;46977;50.936;6.908;2023-01-08T01:00:46;3.15;;;1.50;;
61096;SDS011;46977;50.936;6.908;2023-01-08T01:03:49;6.30;;;1.55;;
61096;SDS011;46977;50.936;6.908;2023-01-08T01:06:52;3.60;;;1.17;;
61096;SDS011;46977;50.936;6.908;2023-01-08T01:09:55;3.78;;;1.58;;
61096;SDS011;46977;50.936;6.908;2023-01-08T01:12:57;3.78;;;1.77;;
61096;SDS011;46977;50.936;6.908;2023-01-08T01:16:00;3.80;;;1.70;;
61096;SDS011;46977;50.936;6.908;2023-01-08T01:19:06;3.47;;;1.80;;
61096;SDS011;46977;50.936;6.908;2023-01-08T01:22:10;4.55;;;1.85;;
61096;SDS011;46977;50.936;6.908;2023-01-08T01:25:13;4.68;;;1.40;;
61096;SDS011;46977;50.936;6.908;2023-01-08T01:28:15;4.03;;;1.70;;
61096;SDS011;46977;50.936;6.908;2023-01-08T01:31:18;3.65;;;1.75;;
61096;SDS011;46977;50.936;6.908;2023-01-08T01:34:21;10.85;;;2.00;;
61096;SDS011;46977;50.936;6.908;2023-01-08T01:37:24;4.85;;;2.00;;
61096;SDS011;46977;50.936;6.908;2023-01-08T01:40:27;3.40;;;1.75;;
61096;SDS011;46977;50.936;6.908;2023-01-08T01:43:37;5.60;;;2.83;;
61096;SDS011;46977;50.936;6.908;2023-01-08T01:46:41;4.63;;;2.00;;
61096;SDS011;46977;50.936;6.908;2023-01-08T01:49:45;4.68;;;2.10;;
61096;SDS011;46977;50.936;6.908;2023-01-08T01:52:54;3.63;;;2.33;;
61096;SDS011;46977;50.936;6.908;2023-01-08T01:56:02;8.52;;;3.13;;
61096;SDS011;46977;50.936;6.908;2023-01-08T01:59:05;7.05;;;2.60;;
61096;SDS011;46977;50.936;6.908;2023-01-08T02:02:08;6.22;;;2.13;;
61096;SDS011;46977;50.936;6.908;2023-01-08T02:05:10;4.97;;;2.20;;
61096;SDS011;46977;50.936;6.908;2023-01-08T02:08:16;5.60;;;2.03;;
61096;SDS011;46977;50.936;6.908;2023-01-08T02:11:25;6.75;;;2.55;;
61096;SDS011;46977;50.936;6.908;2023-01-08T02:14:33;5.47;;;2.13;;
61096;SDS011;46977;50.936;6.908;2023-01-08T02:17:43;6.43;;;2.25;;
61096;SDS011;46977;50.936;6.908;2023-01-08T02:20:49;9.32;;;2.97;;
61096;SDS011;46977;50.936;6.908;2023-01-08T02:23:58;7.15;;;2.85;;
61096;SDS011;46977;50.936;6.908;2023-01-08T02:27:06;8.23;;;4.70;;
61096;SDS011;46977;50.936;6.908;2023-01-08T02:30:09;7.32;;;4.18;;
61096;SDS011;46977;50.936;6.908;2023-01-08T02:33:12;8.38;;;3.75;;
61096;SDS011;46977;50.936;6.908;2023-01-08T02:36:18;8.07;;;3.90;;
61096;SDS011;46977;50.936;6.908;2023-01-08T02:39:35;8.20;;;3.55;;
61096;SDS011;46977;50.936;6.908;2023-01-08T02:42:44;7.38;;;3.75;;
61096;SDS011;46977;50.936;6.908;2023-01-08T02:45:48;9.00;;;3.40;;
61096;SDS011;46977;50.936;6.908;2023-01-08T02:48:52;6.60;;;3.40;;
61096;SDS011;46977;50.936;6.908;2023-01-08T02:51:56;8.27;;;4.10;;
61096;SDS011;46977;50.936;6.908;2023-01-08T02:54:59;8.43;;;3.00;;
61096;SDS011;46977;50.936;6.908;2023-01-08T02:58:04;6.25;;;3.25;;
61096;SDS011;46977;50.936;6.908;2023-01-08T03:01:08;9.52;;;3.60;;
61096;SDS011;46977;50.936;6.908;2023-01-08T03:04:12;8.38;;;3.00;;
61096;SDS011;46977;50.936;6.908;2023-01-08T03:07:17;6.38;;;3.50;;
61096;SDS011;46977;50.936;6.908;2023-01-08T03:10:20;9.45;;;3.65;;
61096;SDS011;46977;50.936;6.908;2023-01-08T03:13:29;10.23;;;3.20;;
61096;SDS011;46977;50.936;6.908;2023-01-08T03:16:34;8.25;;;3.38;;
61096;SDS011;46977;50.936;6.908;2023-01-08T03:19:39;7.70;;;3.40;;
61096;SDS011;46977;50.936;6.908;2023-01-08T03:22:45;6.32;;;3.30;;
61096;SDS011;46977;50.936;6.908;2023-01-08T03:25:49;6.30;;;2.17;;
61096;SDS011;46977;50.936;6.908;2023-01-08T03:28:53;5.80;;;1.70;;
61096;SDS011;46977;50.936;6.908;2023-01-08T03:31:57;5.00;;;2.10;;
61096;SDS011;46977;50.936;6.908;2023-01-08T03:35:01;5.53;;;2.55;;
61096;SDS011;46977;50.936;6.908;2023-01-08T03:38:07;5.03;;;2.00;;
61096;SDS011;46977;50.936;6.908;2023-01-08T03:41:14;6.40;;;1.83;;
61096;SDS011;46977;50.936;6.908;2023-01-08T03:44:21;4.97;;;1.92;;
61096;SDS011;46977;50.936;6.908;2023-01-08T03:47:23;3.50;;;1.65;;
61096;SDS011;46977;50.936;6.908;2023-01-08T03:50:27;6.22;;;2.75;;
61096;SDS011;46977;50.936;6.908;2023-01-08T03:53:30;5.25;;;1.65;;
61096;SDS011;46977;50.936;6.908;2023-01-08T03:56:32;4.82;;;2.00;;
61096;SDS011;46977;50.936;6.908;2023-01-08T03:59:37;3.47;;;1.83;;
61096;SDS011;46977;50.936;6.908;2023-01-08T04:02:39;3.70;;;1.75;;
61096;SDS011;46977;50.936;6.908;2023-01-08T04:05:43;6.60;;;1.45;;
61096;SDS011;46977;50.936;6.908;2023-01-08T04:08:46;2.90;;;1.70;;
61096;SDS011;46977;50.936;6.908;2023-01-08T04:11:48;4.20;;;1.83;;
61096;SDS011;46977;50.936;6.908;2023-01-08T04:14:52;3.20;;;1.75;;
61096;SDS011;46977;50.936;6.908;2023-01-08T04:17:54;1.75;;;1.27;;
61096;SDS011;46977;50.936;6.908;2023-01-08T04:20:56;2.75;;;0.98;;
61096;SDS011;46977;50.936;6.908;2023-01-08T04:23:58;6.88;;;1.23;;
61096;SDS011;46977;50.936;6.908;2023-01-08T04:27:01;1.58;;;1.30;;
61096;SDS011;46977;50.936;6.908;2023-01-08T04:30:05;2.35;;;1.50;;
61096;SDS011;46977;50.936;6.908;2023-01-08T04:33:08;4.03;;;1.50;;
61096;SDS011;46977;50.936;6.908;2023-01-08T04:36:11;3.25;;;1.00;;
61096;SDS011;46977;50.936;6.908;2023-01-08T04:39:13;2.60;;;1.17;;
61096;SDS011;46977;50.936;6.908;2023-01-08T04:42:15;5.30;;;1.38;;
61096;SDS011;46977;50.936;6.908;2023-01-08T04:45:19;1.75;;;0.80;;
61096;SDS011;46977;50.936;6.908;2023-01-08T04:48:30;2.92;;;1.00;;
61096;SDS011;46977;50.936;6.908;2023-01-08T04:51:32;2.45;;;0.90;;
61096;SDS011;46977;50.936;6.908;2023-01-08T04:54:35;4.15;;;1.00;;
61096;SDS011;46977;50.936;6.908;2023-01-08T04:57:37;7.55;;;1.27;;
61096;SDS011;46977;50.936;6.908;2023-01-08T05:00:41;1.60;;;0.70;;
61096;SDS011;46977;50.936;6.908;2023-01-08T05:03:43;3.30;;;0.90;;
61096;SDS011;46977;50.936;6.908;2023-01-08T05:06:45;2.38;;;1.10;;
61096;SDS011;46977;50.936;6.908;2023-01-08T05:09:48;4.60;;;1.23;;
61096;SDS011;46977;50.936;6.908;2023-01-08T05:12:57;2.47;;;0.80;;
61096;SDS011;46977;50.936;6.908;2023-01-08T05:16:02;1.60;;;0.75;;
61096;SDS011;46977;50.936;6.908;2023-01-08T05:19:05;1.58;;;0.60;;
61096;SDS011;46977;50.936;6.908;2023-01-08T05:22:08;1.67;;;0.70;;
61096;SDS011;46977;50.936;6.908;2023-01-08T05:25:13;2.50;;;0.52;;
61096;SDS011;46977;50.936;6.908;2023-01-08T05:28:20;2.42;;;0.60;;
61096;SDS011;46977;50.936;6.908;2023-01-08T05:31:24;2.10;;;0.88;;
61096;SDS011;46977;50.936;6.908;2023-01-08T05:34:27;9.20;;;2.25;;
61096;SDS011;46977;50.936;6.908;2023-01-08T05:37:29;2.40;;;0.75;;
61096;SDS011;46977;50.936;6.908;2023-01-08T05:40:32;1.73;;;0.63;;
61096;SDS011;46977;50.936;6.908;2023-01-08T05:43:36;0.98;;;0.50;;
61096;SDS011;46977;50.936;6.908;2023-01-08T05:46:42;2.20;;;0.70;;
61096;SDS011;46977;50.936;6.908;2023-01-08T05:49:48;3.25;;;0.65;;
61096;SDS011;46977;50.936;6.908;2023-01-08T05:52:50;1.30;;;0.50;;
61096;SDS011;46977;50.936;6.908;2023-01-08T05:55:56;5.15;;;0.60;;
61096;SDS011;46977;50.936;6.908;2023-01-08T05:59:00;1.58;;;0.47;;
61096;SDS011;46977;50.936;6.908;2023-01-08T06:02:04;1.45;;;0.50;;
61096;SDS011;46977;50.936;6.908;2023-01-08T06:05:07;0.68;;;0.40;;
61096;SDS011;46977;50.936;6.908;2023-01-08T06:08:09;2.63;;;0.47;;
61096;SDS011;46977;50.936;6.908;2023-01-08T06:11:11;1.02;;;0.40;;
61096;SDS011;46977;50.936;6.908;2023-01-08T06:14:14;1.13;;;0.40;;
61096;SDS011;46977;50.936;6.908;2023-01-08T06:17:18;2.50;;;0.40;;
61096;SDS011;46977;50.936;6.908;2023-01-08T06:20:20;0.90;;;0.40;;
61096;SDS011;46977;50.936;6.908;2023-01-08T06:23:23;1.98;;;0.50;;
61096;SDS011;46977;50.936;6.908;2023-01-08T06:26:25;1.35;;;0.57;;
61096;SDS011;46977;50.936;6.908;2023-01-08T06:29:27;2.03;;;0.40;;
61096;SDS011;46977;50.936;6.908;2023-01-08T06:32:31;0.95;;;0.50;;
61096;SDS011;46977;50.936;6.908;2023-01-08T06:35:34;0.98;;;0.40;;
61096;SDS011;46977;50.936;6.908;2023-01-08T06:38:37;1.00;;;0.50;;
61096;SDS011;46977;50.936;6.908;2023-01-08T06:41:39;4.82;;;1.40;;
61096;SDS011;46977;50.936;6.908;2023-01-08T06:44:41;2.05;;;0.40;;
61096;SDS011;46977;50.936;6.908;2023-01-08T06:47:45;1.67;;;0.50;;
61096;SDS011;46977;50.936;6.908;2023-01-08T06:50:48;4.03;;;0.50;;
61096;SDS011;46977;50.936;6.908;2023-01-08T06:53:50;0.50;;;0.40;;
61096;SDS011;46977;50.936;6.908;2023-01-08T06:56:52;1.50;;;0.50;;
61096;SDS011;46977;50.936;6.908;2023-01-08T06:59:55;0.75;;;0.47;;
61096;SDS011;46977;50.936;6.908;2023-01-08T07:02:59;1.25;;;0.60;;
61096;SDS011;46977;50.936;6.908;2023-01-08T07:06:02;1.23;;;0.60;;
61096;SDS011;46977;50.936;6.908;2023-01-08T07:09:04;2.42;;;0.70;;
61096;SDS011;46977;50.936;6.908;2023-01-08T07:12:09;2.50;;;0.70;;
61096;SDS011;46977;50.936;6.908;2023-01-08T07:15:12;6.82;;;1.10;;
61096;SDS011;46977;50.936;6.908;2023-01-08T07:18:16;1.15;;;0.52;;
61096;SDS011;46977;50.936;6.908;2023-01-08T07:21:19;5.50;;;0.55;;
61096;SDS011;46977;50.936;6.908;2023-01-08T07:24:23;1.70;;;0.40;;
61096;SDS011;46977;50.936;6.908;2023-01-08T07:27:25;4.63;;;0.50;;
61096;SDS011;46977;50.936;6.908;2023-01-08T07:30:28;4.63;;;0.50;;
61096;SDS011;46977;50.936;6.908;2023-01-08T07:33:33;3.95;;;0.85;;
61096;SDS011;46977;50.936;6.908;2023-01-08T07:36:35;10.27;;;1.40;;
61096;SDS011;46977;50.936;6.908;2023-01-08T07:39:38;3.35;;;0.57;;
61096;SDS011;46977;50.936;6.908;2023-01-08T07:42:40;5.78;;;0.95;;
61096;SDS011;46977;50.936;6.908;2023-01-08T07:45:42;4.95;;;0.98;;
61096;SDS011;46977;50.936;6.908;2023-01-08T07:48:46;4.22;;;1.15;;
61096;SDS011;46977;50.936;6.908;2023-01-08T07:51:48;28.15;;;8.00;;
61096;SDS011;46977;50.936;6.908;2023-01-08T07:54:50;4.50;;;1.05;;
61096;SDS011;46977;50.936;6.908;2023-01-08T07:57:53;2.08;;;0.65;;
61096;SDS011;46977;50.936;6.908;2023-01-08T08:00:55;9.98;;;0.70;;
61096;SDS011;46977;50.936;6.908;2023-01-08T08:04:02;4.22;;;0.40;;
61096;SDS011;46977;50.936;6.908;2023-01-08T08:07:05;3.42;;;0.40;;
61096;SDS011;46977;50.936;6.908;2023-01-08T08:10:07;2.63;;;0.70;;
61096;SDS011;46977;50.936;6.908;2023-01-08T08:13:10;1.90;;;0.50;;
61096;SDS011;46977;50.936;6.908;2023-01-08T08:16:13;2.70;;;0.57;;
61096;SDS011;46977;50.936;6.908;2023-01-08T08:19:17;4.57;;;0.98;;
61096;SDS011;46977;50.936;6.908;2023-01-08T08:22:19;6.35;;;1.33;;
61096;SDS011;46977;50.936;6.908;2023-01-08T08:25:22;6.05;;;0.70;;
61096;SDS011;46977;50.936;6.908;2023-01-08T08:28:24;3.75;;;0.68;;
61096;SDS011;46977;50.936;6.908;2023-01-08T08:31:27;4.32;;;0.60;;
61096;SDS011;46977;50.936;6.908;2023-01-08T08:34:31;3.63;;;0.60;;
61096;SDS011;46977;50.936;6.908;2023-01-08T08:37:34;2.60;;;0.50;;
61096;SDS011;46977;50.936;6.908;2023-01-08T08:40:36;2.28;;;0.55;;
61096;SDS011;46977;50.936;6.908;2023-01-08T08:43:39;3.50;;;0.50;;
61096;SDS011;46977;50.936;6.908;2023-01-08T08:46:41;4.15;;;0.50;;
61096;SDS011;46977;50.936;6.908;2023-01-08T08:49:45;5.00;;;0.60;;
61096;SDS011;46977;50.936;6.908;2023-01-08T08:52:47;5.20;;;0.60;;
61096;SDS011;46977;50.936;6.908;2023-01-08T08:55:50;5.70;;;0.65;;
61096;SDS011;46977;50.936;6.908;2023-01-08T08:58:52;4.90;;;0.50;;
61096;SDS011;46977;50.936;6.908;2023-01-08T09:01:54;7.63;;;0.82;;
61096;SDS011;46977;50.936;6.908;2023-01-08T09:04:58;6.15;;;0.63;;
61096;SDS011;46977;50.936;6.908;2023-01-08T09:08:01;7.05;;;0.68;;
61096;SDS011;46977;50.936;6.908;2023-01-08T09:11:04;4.72;;;0.73;;
61096;SDS011;46977;50.936;6.908;2023-01-08T09:14:06;2.60;;;0.57;;
61096;SDS011;46977;50.936;6.908;2023-01-08T09:17:08;4.05;;;0.40;;
61096;SDS011;46977;50.936;6.908;2023-01-08T09:20:12;2.58;;;0.60;;
61096;SDS011;46977;50.936;6.908;2023-01-08T09:23:14;4.40;;;0.40;;
61096;SDS011;46977;50.936;6.908;2023-01-08T09:26:17;3.50;;;0.52;;
61096;SDS011;46977;50.936;6.908;2023-01-08T09:29:19;4.38;;;0.50;;
61096;SDS011;46977;50.936;6.908;2023-01-08T09:32:21;2.90;;;0.40;;
61096;SDS011;46977;50.936;6.908;2023-01-08T09:35:25;3.10;;;0.70;;
61096;SDS011;46977;50.936;6.908;2023-01-08T09:38:28;3.90;;;0.50;;
61096;SDS011;46977;50.936;6.908;2023-01-08T09:41:31;4.68;;;0.80;;
61096;SDS011;46977;50.936;6.908;2023-01-08T09:44:36;1.70;;;0.68;;
61096;SDS011;46977;50.936;6.908;2023-01-08T09:47:41;4.07;;;0.47;;
61096;SDS011;46977;50.936;6.908;2023-01-08T09:50:47;3.38;;;0.52;;
61096;SDS011;46977;50.936;6.908;2023-01-08T09:53:52;3.33;;;0.75;;
61096;SDS011;46977;50.936;6.908;2023-01-08T09:56:56;5.88;;;0.50;;
61096;SDS011;46977;50.936;6.908;2023-01-08T09:59:59;3.60;;;0.50;;
61096;SDS011;46977;50.936;6.908;2023-01-08T10:03:02;2.70;;;0.50;;
61096;SDS011;46977;50.936;6.908;2023-01-08T10:06:11;1.63;;;0.50;;
61096;SDS011;46977;50.936;6.908;2023-01-08T10:09:14;0.50;;;0.40;;
61096;SDS011;46977;50.936;6.908;2023-01-08T10:12:17;2.05;;;0.52;;
61096;SDS011;46977;50.936;6.908;2023-01-08T10:15:24;1.70;;;0.57;;
61096;SDS011;46977;50.936;6.908;2023-01-08T10:18:27;4.63;;;0.80;;
61096;SDS011;46977;50.936;6.908;2023-01-08T10:21:32;1.08;;;0.68;;
61096;SDS011;46977;50.936;6.908;2023-01-08T10:24:39;3.15;;;0.85;;
61096;SDS011;46977;50.936;6.908;2023-01-08T10:27:46;3.60;;;0.75;;
61096;SDS011;46977;50.936;6.908;2023-01-08T10:30:50;1.75;;;0.75;;
61096;SDS011;46977;50.936;6.908;2023-01-08T10:33:53;3.97;;;0.82;;
61096;SDS011;46977;50.936;6.908;2023-01-08T10:36:57;2.60;;;0.80;;
61096;SDS011;46977;50.936;6.908;2023-01-08T10:40:01;8.07;;;1.05;;
61096;SDS011;46977;50.936;6.908;2023-01-08T10:43:11;7.65;;;1.95;;
61096;SDS011;46977;50.936;6.908;2023-01-08T10:46:16;6.25;;;1.27;;
61096;SDS011;46977;50.936;6.908;2023-01-08T10:49:25;4.65;;;0.70;;
61096;SDS011;46977;50.936;6.908;2023-01-08T10:52:34;4.57;;;1.00;;
61096;SDS011;46977;50.936;6.908;2023-01-08T10:55:37;6.55;;;1.15;;
61096;SDS011;46977;50.936;6.908;2023-01-08T10:58:40;3.40;;;0.70;;
61096;SDS011;46977;50.936;6.908;2023-01-08T11:01:45;3.35;;;0.70;;
61096;SDS011;46977;50.936;6.908;2023-01-08T11:04:48;2.00;;;0.70;;
61096;SDS011;46977;50.936;6.908;2023-01-08T11:07:54;2.80;;;1.35;;
61096;SDS011;46977;50.936;6.908;2023-01-08T11:10:59;3.50;;;1.00;;
61096;SDS011;46977;50.936;6.908;2023-01-08T11:14:03;3.70;;;0.85;;
61096;SDS011;46977;50.936;6.908;2023-01-08T11:17:08;3.10;;;0.77;;
61096;SDS011;46977;50.936;6.908;2023-01-08T11:20:17;2.45;;;0.85;;
61096;SDS011;46977;50.936;6.908;2023-01-08T11:23:24;3.88;;;1.02;;
61096;SDS011;46977;50.936;6.908;2023-01-08T11:26:27;3.95;;;0.70;;
61096;SDS011;46977;50.936;6.908;2023-01-08T11:29:33;3.22;;;0.70;;
61096;SDS011;46977;50.936;6.908;2023-01-08T11:32:41;6.85;;;1.83;;
61096;SDS011;46977;50.936;6.908;2023-01-08T11:35:47;4.03;;;0.60;;
61096;SDS011;46977;50.936;6.908;2023-01-08T11:38:54;5.97;;;0.60;;
61096;SDS011;46977;50.936;6.908;2023-01-08T11:45:23;3.85;;;0.98;;
61096;SDS011;46977;50.936;6.908;2023-01-08T11:48:42;2.72;;;0.90;;
61096;SDS011;46977;50.936;6.908;2023-01-08T11:51:56;4.22;;;0.88;;
61096;SDS011;46977;50.936;6.908;2023-01-08T11:55:17;3.22;;;0.73;;
61096;SDS011;46977;50.936;6.908;2023-01-08T11:58:27;4.47;;;0.93;;
61096;SDS011;46977;50.936;6.908;2023-01-08T12:01:38;7.50;;;1.27;;
61096;SDS011;46977;50.936;6.908;2023-01-08T12:04:58;0.45;;;0.30;;
61096;SDS011;46977;50.936;6.908;2023-01-08T12:08:20;3.88;;;0.50;;
61096;SDS011;46977;50.936;6.908;2023-01-08T12:11:28;1.08;;;0.40;;
61096;SDS011;46977;50.936;6.908;2023-01-08T12:14:35;2.42;;;0.45;;
61096;SDS011;46977;50.936;6.908;2023-01-08T12:17:49;0.40;;;0.30;;
61096;SDS011;46977;50.936;6.908;2023-01-08T12:21:01;1.20;;;0.45;;
61096;SDS011;46977;50.936;6.908;2023-01-08T12:24:14;0.60;;;0.40;;
61096;SDS011;46977;50.936;6.908;2023-01-08T12:27:27;1.95;;;0.47;;
61096;SDS011;46977;50.936;6.908;2023-01-08T12:34:30;2.25;;;0.50;;
61096;SDS011;46977;50.936;6.908;2023-01-08T12:37:38;1.50;;;1.15;;
61096;SDS011;46977;50.936;6.908;2023-01-08T12:40:44;0.88;;;0.20;;
61096;SDS011;46977;50.936;6.908;2023-01-08T12:43:51;2.72;;;0.50;;
61096;SDS011;46977;50.936;6.908;2023-01-08T12:46:56;0.63;;;0.30;;
61096;SDS011;46977;50.936;6.908;2023-01-08T12:50:02;1.25;;;0.55;;
61096;SDS011;46977;50.936;6.908;2023-01-08T12:53:11;2.65;;;0.50;;
61096;SDS011;46977;50.936;6.908;2023-01-08T12:56:18;6.13;;;0.98;;
61096;SDS011;46977;50.936;6.908;2023-01-08T12:59:27;2.72;;;0.52;;
61096;SDS011;46977;50.936;6.908;2023-01-08T13:02:34;1.48;;;0.60;;
61096;SDS011;46977;50.936;6.908;2023-01-08T13:05:39;1.67;;;0.47;;
61096;SDS011;46977;50.936;6.908;2023-01-08T13:08:44;2.60;;;0.90;;
61096;SDS011;46977;50.936;6.908;2023-01-08T13:11:51;2.88;;;1.05;;
61096;SDS011;46977;50.936;6.908;2023-01-08T13:14:56;0.98;;;0.32;;
61096;SDS011;46977;50.936;6.908;2023-01-08T13:18:01;5.93;;;1.15;;
61096;SDS011;46977;50.936;6.908;2023-01-08T13:21:08;1.50;;;0.40;;
61096;SDS011;46977;50.936;6.908;2023-01-08T13:24:24;1.10;;;0.35;;
61096;SDS011;46977;50.936;6.908;2023-01-08T13:27:30;0.45;;;0.20;;
61096;SDS011;46977;50.936;6.908;2023-01-08T13:30:38;1.02;;;0.30;;
61096;SDS011;46977;50.936;6.908;2023-01-08T13:33:41;1.42;;;0.47;;
61096;SDS011;46977;50.936;6.908;2023-01-08T13:36:53;0.40;;;0.30;;
61096;SDS011;46977;50.936;6.908;2023-01-08T13:39:57;0.95;;;0.40;;
61096;SDS011;46977;50.936;6.908;2023-01-08T13:42:59;1.90;;;0.47;;
61096;SDS011;46977;50.936;6.908;2023-01-08T13:46:07;1.10;;;0.68;;
61096;SDS011;46977;50.936;6.908;2023-01-08T13:49:18;1.70;;;0.45;;
61096;SDS011;46977;50.936;6.908;2023-01-08T13:52:31;0.82;;;0.30;;
61096;SDS011;46977;50.936;6.908;2023-01-08T13:55:37;3.25;;;1.20;;
61096;SDS011;46977;50.936;6.908;2023-01-08T13:58:42;2.95;;;0.30;;
61096;SDS011;46977;50.936;6.908;2023-01-08T14:01:54;0.70;;;0.40;;
61096;SDS011;46977;50.936;6.908;2023-01-08T14:04:58;1.02;;;0.40;;
61096;SDS011;46977;50.936;6.908;2023-01-08T14:08:01;1.67;;;0.40;;
61096;SDS011;46977;50.936;6.908;2023-01-08T14:11:04;1.20;;;0.43;;
61096;SDS011;46977;50.936;6.908;2023-01-08T14:14:07;1.70;;;0.43;;
61096;SDS011;46977;50.936;6.908;2023-01-08T14:17:13;0.50;;;0.30;;
61096;SDS011;46977;50.936;6.908;2023-01-08T14:20:27;1.92;;;0.40;;
61096;SDS011;46977;50.936;6.908;2023-01-08T14:23:32;1.30;;;0.30;;
61096;SDS011;46977;50.936;6.908;2023-01-08T14:26:37;2.72;;;1.17;;
61096;SDS011;46977;50.936;6.908;2023-01-08T14:29:43;1.50;;;0.40;;
61096;SDS011;46977;50.936;6.908;2023-01-08T14:32:47;2.15;;;0.65;;
61096;SDS011;46977;50.936;6.908;2023-01-08T14:35:50;2.63;;;1.30;;
61096;SDS011;46977;50.936;6.908;2023-01-08T14:38:53;3.20;;;0.98;;
61096;SDS011;46977;50.936;6.908;2023-01-08T14:41:55;3.92;;;0.90;;
61096;SDS011;46977;50.936;6.908;2023-01-08T14:45:20;1.48;;;0.45;;
61096;SDS011;46977;50.936;6.908;2023-01-08T14:48:27;1.60;;;0.50;;
61096;SDS011;46977;50.936;6.908;2023-01-08T14:51:33;2.35;;;0.45;;
61096;SDS011;46977;50.936;6.908;2023-01-08T14:54:35;0.80;;;0.60;;
61096;SDS011;46977;50.936;6.908;2023-01-08T14:57:41;2.45;;;0.77;;
61096;SDS011;46977;50.936;6.908;2023-01-08T15:00:44;1.40;;;0.43;;
61096;SDS011;46977;50.936;6.908;2023-01-08T15:04:02;0.88;;;0.40;;
61096;SDS011;46977;50.936;6.908;2023-01-08T15:07:07;1.90;;;0.38;;
61096;SDS011;46977;50.936;6.908;2023-01-08T15:10:30;0.73;;;0.30;;
61096;SDS011;46977;50.936;6.908;2023-01-08T15:13:36;1.10;;;0.40;;
61096;SDS011;46977;50.936;6.908;2023-01-08T15:16:40;1.67;;;0.30;;
61096;SDS011;46977;50.936;6.908;2023-01-08T15:19:47;0.80;;;0.40;;
61096;SDS011;46977;50.936;6.908;2023-01-08T15:22:51;1.02;;;0.50;;
61096;SDS011;46977;50.936;6.908;2023-01-08T15:25:53;8.48;;;2.90;;
61096;SDS011;46977;50.936;6.908;2023-01-08T15:28:57;1.88;;;0.20;;
61096;SDS011;46977;50.936;6.908;2023-01-08T15:32:18;1.35;;;0.30;;
61096;SDS011;46977;50.936;6.908;2023-01-08T15:35:23;3.03;;;0.55;;
61096;SDS011;46977;50.936;6.908;2023-01-08T15:38:26;2.70;;;0.50;;
61096;SDS011;46977;50.936;6.908;2023-01-08T15:41:32;0.68;;;0.40;;
61096;SDS011;46977;50.936;6.908;2023-01-08T15:44:53;2.55;;;0.40;;
61096;SDS011;46977;50.936;6.908;2023-01-08T15:47:55;1.02;;;0.43;;
61096;SDS011;46977;50.936;6.908;2023-01-08T15:50:59;0.82;;;0.30;;
61096;SDS011;46977;50.936;6.908;2023-01-08T15:54:01;0.50;;;0.30;;
61096;SDS011;46977;50.936;6.908;2023-01-08T15:57:04;1.45;;;0.40;;
61096;SDS011;46977;50.936;6.908;2023-01-08T16:00:07;1.45;;;0.43;;
61096;SDS011;46977;50.936;6.908;2023-01-08T16:03:11;1.15;;;0.32;;
61096;SDS011;46977;50.936;6.908;2023-01-08T16:06:15;1.40;;;0.40;;
61096;SDS011;46977;50.936;6.908;2023-01-08T16:09:18;4.90;;;0.40;;
61096;SDS011;46977;50.936;6.908;2023-01-08T16:12:20;0.63;;;0.40;;
61096;SDS011;46977;50.936;6.908;2023-01-08T16:15:22;2.35;;;0.52;;
61096;SDS011;46977;50.936;6.908;2023-01-08T16:18:27;0.93;;;0.40;;
61096;SDS011;46977;50.936;6.908;2023-01-08T16:21:31;1.13;;;0.40;;
61096;SDS011;46977;50.936;6.908;2023-01-08T16:24:33;4.68;;;1.10;;
61096;SDS011;46977;50.936;6.908;2023-01-08T16:27:35;1.38;;;0.40;;
61096;SDS011;46977;50.936;6.908;2023-01-08T16:30:39;1.98;;;0.40;;
61096;SDS011;46977;50.936;6.908;2023-01-08T16:33:43;1.40;;;0.45;;
61096;SDS011;46977;50.936;6.908;2023-01-08T16:36:47;1.55;;;0.50;;
61096;SDS011;46977;50.936;6.908;2023-01-08T16:39:50;1.95;;;0.50;;
61096;SDS011;46977;50.936;6.908;2023-01-08T16:42:52;2.78;;;1.17;;
61096;SDS011;46977;50.936;6.908;2023-01-08T16:45:55;2.03;;;0.98;;
61096;SDS011;46977;50.936;6.908;2023-01-08T16:48:57;1.90;;;0.60;;
61096;SDS011;46977;50.936;6.908;2023-01-08T16:52:02;1.08;;;0.57;;
61096;SDS011;46977;50.936;6.908;2023-01-08T16:55:05;4.22;;;0.70;;
61096;SDS011;46977;50.936;6.908;2023-01-08T16:58:08;2.65;;;0.70;;
61096;SDS011;46977;50.936;6.908;2023-01-08T17:01:11;2.08;;;0.70;;
61096;SDS011;46977;50.936;6.908;2023-01-08T17:04:14;2.40;;;1.42;;
61096;SDS011;46977;50.936;6.908;2023-01-08T17:07:18;4.60;;;1.10;;
61096;SDS011;46977;50.936;6.908;2023-01-08T17:10:21;2.50;;;0.90;;
61096;SDS011;46977;50.936;6.908;2023-01-08T17:13:24;3.85;;;1.60;;
61096;SDS011;46977;50.936;6.908;2023-01-08T17:16:26;2.95;;;0.70;;
61096;SDS011;46977;50.936;6.908;2023-01-08T17:19:29;2.33;;;0.90;;
61096;SDS011;46977;50.936;6.908;2023-01-08T17:22:33;3.03;;;0.90;;
61096;SDS011;46977;50.936;6.908;2023-01-08T17:25:38;3.92;;;0.88;;
61096;SDS011;46977;50.936;6.908;2023-01-08T17:28:41;1.20;;;1.10;;
61096;SDS011;46977;50.936;6.908;2023-01-08T17:31:43;3.78;;;0.90;;
61096;SDS011;46977;50.936;6.908;2023-01-08T17:34:45;2.75;;;0.70;;
61096;SDS011;46977;50.936;6.908;2023-01-08T17:37:49;2.10;;;0.70;;
61096;SDS011;46977;50.936;6.908;2023-01-08T17:40:52;2.45;;;0.80;;
61096;SDS011;46977;50.936;6.908;2023-01-08T17:43:54;3.33;;;0.90;;
61096;SDS011;46977;50.936;6.908;2023-01-08T17:46:57;2.92;;;1.08;;
61096;SDS011;46977;50.936;6.908;2023-01-08T17:49:59;3.88;;;1.00;;
61096;SDS011;46977;50.936;6.908;2023-01-08T17:53:04;4.07;;;0.90;;
61096;SDS011;46977;50.936;6.908;2023-01-08T17:56:06;3.15;;;1.30;;
61096;SDS011;46977;50.936;6.908;2023-01-08T17:59:09;5.30;;;1.42;;
61096;SDS011;46977;50.936;6.908;2023-01-08T18:02:14;3.53;;;1.20;;
61096;SDS011;46977;50.936;6.908;2023-01-08T18:05:17;9.18;;;1.23;;
61096;SDS011;46977;50.936;6.908;2023-01-08T18:08:21;3.47;;;1.00;;
61096;SDS011;46977;50.936;6.908;2023-01-08T18:11:25;3.53;;;1.23;;
61096;SDS011;46977;50.936;6.908;2023-01-08T18:14:27;4.95;;;0.93;;
61096;SDS011;46977;50.936;6.908;2023-01-08T18:17:29;3.95;;;1.00;;
61096;SDS011;46977;50.936;6.908;2023-01-08T18:20:32;3.85;;;0.90;;
61096;SDS011;46977;50.936;6.908;2023-01-08T18:23:36;5.18;;;1.20;;
61096;SDS011;46977;50.936;6.908;2023-01-08T18:26:39;4.38;;;0.90;;
61096;SDS011;46977;50.936;6.908;2023-01-08T18:29:41;3.20;;;1.27;;
61096;SDS011;46977;50.936;6.908;2023-01-08T18:32:44;3.33;;;1.35;;
61096;SDS011;46977;50.936;6.908;2023-01-08T18:35:46;4.15;;;1.20;;
61096;SDS011;46977;50.936;6.908;2023-01-08T18:38:50;5.97;;;1.27;;
61096;SDS011;46977;50.936;6.908;2023-01-08T18:41:52;3.33;;;1.00;;